EmailTwitter


Surface observations / Quebec / CYND

Regions: Quebec | Canada | USA | Europe | France | UK | Elsewhere
Station
Display
Info & Location for CYND | Help decoding METAR

Weather Conditions observed on 2018/02/23 at 02:00 UTC at OTTAWA GATINEAU, QB (CYND)

Sky conditions: clear.

Temperature: -11.0 Celsius.

Dewpoint: -13.0 Celsius.

Relative Humidity: 85%

Windchill Factor: -14.

Winds: Northwest at 6 km/h or 3 knots.

Mean Sea level Pressure: 104.14 kilopascals.

Altimeter Setting (QNH): 104.06 kilopascals or 30.73 inches of mercury.

Horizontal visibility: 15.00 statute miles or 24.00 kilometers.

Coded METAR:

CYND 230200Z 31003KT 15SM SKC M11/M13 A3073 RMK LAST STFD OBS/NEXT 231200 UTC

SLP414=